Time;durP1;ratioP1;P1;durP2;ratioP2;P2;SDS_P1;SDS_P2;PMS_P1;PMS_P2;Temp;Humidity;BMP_temperature;BMP_pressure;BME280_temperature;BME280_humidity;BME280_pressure;Samples;Min_cycle;Max_cycle;Signal;HPM_P1;HPM_P2
2021/03/14 00:00:27;;;;;;;2.58;1.25;;;5.50;99.90;;;;;;5121304;28;20197;-80
2021/03/14 00:02:53;;;;;;;3.63;1.67;;;5.50;99.90;;;;;;5121450;28;20201;-81
2021/03/14 00:05:20;;;;;;;1.77;1.67;;;5.50;99.90;;;;;;5121280;28;20224;-80
2021/03/14 00:07:47;;;;;;;2.33;1.40;;;5.50;99.90;;;;;;5120933;28;20245;-81
2021/03/14 00:10:13;;;;;;;1.48;1.38;;;5.40;99.90;;;;;;5121743;28;20208;-81
2021/03/14 00:12:39;;;;;;;2.45;1.92;;;5.60;99.90;;;;;;5120767;28;20197;-81
2021/03/14 00:15:08;;;;;;;6.35;1.70;;;5.60;99.90;;;;;;5120745;28;20225;-80
2021/03/14 00:17:35;;;;;;;1.70;1.60;;;5.60;99.90;;;;;;5120999;28;20776;-81
2021/03/14 00:20:01;;;;;;;1.83;1.45;;;5.60;99.90;;;;;;5121402;28;20208;-81
2021/03/14 00:22:27;;;;;;;4.50;1.70;;;5.60;99.90;;;;;;5125041;28;20223;-81
2021/03/14 00:24:53;;;;;;;2.47;1.95;;;5.70;99.90;;;;;;5122228;28;20217;-80
2021/03/14 00:27:19;;;;;;;2.55;1.70;;;5.60;99.90;;;;;;5121729;28;20205;-80
2021/03/14 00:29:45;;;;;;;3.85;1.73;;;5.70;99.90;;;;;;5123566;28;20197;-81
2021/03/14 00:32:12;;;;;;;1.45;1.23;;;5.70;99.90;;;;;;5122240;28;20197;-80
2021/03/14 00:34:38;;;;;;;4.57;1.83;;;6.00;99.90;;;;;;5120758;28;20698;-81
2021/03/14 00:37:05;;;;;;;2.20;2.00;;;5.70;99.90;;;;;;5121534;28;20211;-80
2021/03/14 00:39:31;;;;;;;3.10;2.15;;;5.70;99.90;;;;;;5126206;28;20230;-80
2021/03/14 00:41:57;;;;;;;4.20;2.10;;;5.70;99.90;;;;;;5131721;28;20232;-80
2021/03/14 00:44:23;;;;;;;1.88;1.75;;;5.70;99.90;;;;;;5134812;28;20235;-81
2021/03/14 00:46:50;;;;;;;2.95;2.10;;;5.60;99.90;;;;;;5134926;28;20213;-80
2021/03/14 00:49:17;;;;;;;5.82;2.22;;;5.70;99.90;;;;;;5135577;28;20269;-80
2021/03/14 00:51:44;;;;;;;4.20;1.95;;;5.70;99.90;;;;;;5135262;28;20204;-80
2021/03/14 00:54:10;;;;;;;2.00;1.90;;;5.60;99.90;;;;;;5135787;28;20197;-81
2021/03/14 00:56:36;;;;;;;4.70;2.13;;;5.60;99.90;;;;;;5135718;28;20228;-81
2021/03/14 00:59:02;;;;;;;2.63;2.35;;;5.60;99.90;;;;;;5135846;28;20235;-80
2021/03/14 01:01:28;;;;;;;2.58;2.35;;;5.70;99.90;;;;;;5133647;28;20226;-81
2021/03/14 01:03:54;;;;;;;1.98;1.88;;;5.60;99.90;;;;;;5132943;28;20235;-80
2021/03/14 01:06:21;;;;;;;3.15;2.95;;;5.70;99.90;;;;;;5132763;28;20220;-80
2021/03/14 01:08:48;;;;;;;2.22;2.03;;;5.70;99.90;;;;;;5133476;28;20219;-81
2021/03/14 01:11:14;;;;;;;2.08;1.95;;;5.70;99.90;;;;;;5132783;28;20189;-80
2021/03/14 01:13:40;;;;;;;2.40;2.00;;;5.80;99.90;;;;;;5132494;28;20201;-80
2021/03/14 01:16:06;;;;;;;2.85;1.92;;;5.80;99.90;;;;;;5133111;28;20320;-80
2021/03/14 01:18:32;;;;;;;3.10;2.80;;;5.80;99.90;;;;;;5131979;28;20197;-81
2021/03/14 01:20:58;;;;;;;1.90;1.77;;;5.80;99.90;;;;;;5135011;28;20193;-81
2021/03/14 01:23:25;;;;;;;7.53;2.33;;;5.80;99.90;;;;;;5138745;28;20308;-80
2021/03/14 01:25:51;;;;;;;2.33;2.13;;;5.80;99.90;;;;;;5138638;28;20235;-81
2021/03/14 01:28:17;;;;;;;2.88;2.50;;;5.80;99.90;;;;;;5136562;28;20204;-80
2021/03/14 01:30:43;;;;;;;1.88;1.77;;;5.80;99.90;;;;;;5137518;28;20201;-80
2021/03/14 01:33:10;;;;;;;4.30;2.60;;;5.80;99.90;;;;;;5137485;28;20208;-80
2021/03/14 01:35:36;;;;;;;2.97;1.88;;;5.70;99.90;;;;;;5138505;28;20221;-80
2021/03/14 01:38:02;;;;;;;4.05;3.78;;;5.70;99.90;;;;;;5138667;28;20205;-81
2021/03/14 01:40:29;;;;;;;2.05;1.95;;;5.70;99.90;;;;;;5138228;28;20189;-80
2021/03/14 01:42:55;;;;;;;1.70;1.55;;;5.80;99.90;;;;;;5138031;28;20232;-80
2021/03/14 01:45:22;;;;;;;4.65;2.60;;;5.70;99.90;;;;;;5137818;28;20240;-81
2021/03/14 01:47:51;;;;;;;3.33;2.30;;;5.60;99.90;;;;;;5137815;28;20218;-81
2021/03/14 01:50:19;;;;;;;2.20;2.00;;;5.50;99.90;;;;;;5137392;28;20310;-81
2021/03/14 01:52:46;;;;;;;2.65;2.00;;;5.60;99.90;;;;;;5137100;28;20197;-81
2021/03/14 01:55:14;;;;;;;2.30;2.20;;;5.60;99.90;;;;;;5135837;28;20233;-82
2021/03/14 01:57:42;;;;;;;5.13;1.80;;;5.60;99.90;;;;;;5136763;28;20205;-81
2021/03/14 02:00:10;;;;;;;2.30;2.10;;;5.50;99.90;;;;;;5135294;28;20189;-81
2021/03/14 02:02:37;;;;;;;4.55;2.67;;;5.20;99.90;;;;;;5135014;28;20217;-82
2021/03/14 02:05:04;;;;;;;4.28;2.38;;;5.50;99.90;;;;;;5134399;28;20221;-81
2021/03/14 02:07:31;;;;;;;3.05;1.83;;;5.80;99.90;;;;;;5136382;28;20224;-81
2021/03/14 02:09:57;;;;;;;9.18;4.07;;;5.50;99.90;;;;;;5139463;28;20189;-81
2021/03/14 02:12:26;;;;;;;2.60;2.40;;;5.60;99.90;;;;;;5140685;28;20212;-82
2021/03/14 02:14:58;;;;;;;2.38;2.05;;;5.70;99.90;;;;;;5136625;28;20270;-81
2021/03/14 02:17:29;;;;;;;3.30;2.60;;;5.70;99.90;;;;;;5136971;28;20201;-81
2021/03/14 02:20:01;;;;;;;2.88;2.75;;;5.80;99.90;;;;;;5134192;28;20192;-81
2021/03/14 02:22:28;;;;;;;3.60;2.38;;;5.70;99.90;;;;;;5133529;28;20209;-81
2021/03/14 02:24:57;;;;;;;3.45;2.65;;;5.70;99.90;;;;;;5132135;28;20224;-81
2021/03/14 02:27:25;;;;;;;2.83;2.35;;;5.80;99.90;;;;;;5134653;28;20207;-81
2021/03/14 02:29:51;;;;;;;3.55;2.70;;;5.80;99.90;;;;;;5134605;28;20222;-81
2021/03/14 02:32:20;;;;;;;3.05;2.75;;;5.80;99.90;;;;;;5133979;28;20202;-81
2021/03/14 02:34:49;;;;;;;2.58;2.20;;;5.60;99.90;;;;;;5134824;28;20201;-81
2021/03/14 02:37:17;;;;;;;4.95;2.65;;;5.80;99.90;;;;;;5136716;28;20540;-81
2021/03/14 02:39:43;;;;;;;3.75;2.92;;;5.80;99.90;;;;;;5140632;28;20197;-82
2021/03/14 02:42:11;;;;;;;3.45;2.92;;;5.80;99.90;;;;;;5141379;28;20284;-81
2021/03/14 02:44:42;;;;;;;2.55;2.35;;;6.00;99.90;;;;;;5140655;28;20209;-80
2021/03/14 02:47:08;;;;;;;5.10;2.55;;;5.80;99.90;;;;;;5139133;28;20182;-80
2021/03/14 02:49:36;;;;;;;5.15;3.20;;;4.70;99.90;;;;;;5139723;28;20200;-80
2021/03/14 02:52:04;;;;;;;4.72;3.67;;;5.60;99.90;;;;;;5138333;28;20205;-80
2021/03/14 02:54:31;;;;;;;5.25;3.40;;;5.50;99.90;;;;;;5136904;28;20268;-81
2021/03/14 02:56:58;;;;;;;4.72;3.17;;;5.70;99.90;;;;;;5136783;28;20217;-81
2021/03/14 02:59:24;;;;;;;3.65;3.30;;;5.40;99.90;;;;;;5139376;28;20216;-80
2021/03/14 03:01:52;;;;;;;3.88;3.45;;;5.40;99.90;;;;;;5140378;28;20199;-81
2021/03/14 03:04:22;;;;;;;6.43;4.38;;;5.40;99.90;;;;;;5140298;28;20181;-81
2021/03/14 03:06:49;;;;;;;5.43;3.85;;;5.30;99.90;;;;;;5140489;28;20209;-81
2021/03/14 03:09:16;;;;;;;3.63;3.40;;;5.10;99.90;;;;;;5139786;28;20196;-81
2021/03/14 03:11:43;;;;;;;3.90;3.55;;;5.30;99.90;;;;;;5138619;28;20200;-81
2021/03/14 03:14:13;;;;;;;9.43;3.83;;;5.30;99.90;;;;;;5134841;28;20197;-81
2021/03/14 03:16:41;;;;;;;5.95;3.97;;;5.20;99.90;;;;;;5132710;28;20221;-80
2021/03/14 03:19:12;;;;;;;4.20;3.88;;;5.20;99.90;;;;;;5132607;28;20326;-81
2021/03/14 03:21:38;;;;;;;4.65;4.25;;;5.20;99.90;;;;;;5132376;28;20201;-82
2021/03/14 03:24:06;;;;;;;7.55;4.28;;;5.10;99.90;;;;;;5133716;28;20208;-81
2021/03/14 03:26:32;;;;;;;5.78;4.70;;;5.10;99.90;;;;;;5135597;28;20232;-81
2021/03/14 03:28:58;;;;;;;7.13;4.75;;;5.20;99.90;;;;;;5134267;28;20201;-82
2021/03/14 03:31:24;;;;;;;4.70;4.22;;;5.00;99.90;;;;;;5133789;28;20273;-81
2021/03/14 03:33:50;;;;;;;6.97;4.88;;;4.90;99.90;;;;;;5131887;28;20204;-80
2021/03/14 03:36:17;;;;;;;4.63;4.22;;;4.90;99.90;;;;;;5132547;28;20217;-80
2021/03/14 03:38:43;;;;;;;4.60;4.30;;;4.90;99.90;;;;;;5130341;28;20208;-80
2021/03/14 03:41:09;;;;;;;4.30;3.90;;;4.90;99.90;;;;;;5130051;28;20208;-80
2021/03/14 03:43:37;;;;;;;4.38;3.35;;;4.80;99.90;;;;;;5129994;28;20220;-80
2021/03/14 03:46:06;;;;;;;5.40;3.70;;;4.70;99.90;;;;;;5130485;28;20255;-81
2021/03/14 03:48:39;;;;;;;3.78;3.55;;;4.70;99.90;;;;;;5128255;28;20204;-82
2021/03/14 03:51:06;;;;;;;3.60;3.30;;;4.70;99.90;;;;;;5129857;28;20192;-80
2021/03/14 03:53:34;;;;;;;4.50;3.00;;;4.60;99.90;;;;;;5131365;28;20250;-79
2021/03/14 03:56:02;;;;;;;4.18;3.70;;;4.60;99.90;;;;;;5127795;28;20278;-80
2021/03/14 03:58:30;;;;;;;3.65;3.35;;;4.60;99.90;;;;;;5129280;28;20197;-81
2021/03/14 04:00:57;;;;;;;4.85;3.70;;;4.60;99.90;;;;;;5129091;28;20205;-80
2021/03/14 04:03:23;;;;;;;11.40;3.97;;;4.50;99.90;;;;;;5129496;28;20629;-80
2021/03/14 04:05:54;;;;;;;3.55;3.25;;;4.50;99.90;;;;;;5128353;28;20710;-80
2021/03/14 04:08:21;;;;;;;7.25;3.47;;;4.50;99.90;;;;;;5126557;28;20185;-80
2021/03/14 04:10:49;;;;;;;2.70;2.50;;;4.50;99.90;;;;;;5126321;28;20235;-81
2021/03/14 04:13:17;;;;;;;2.53;2.20;;;4.60;99.90;;;;;;5127941;28;20225;-80
2021/03/14 04:15:43;;;;;;;2.20;1.98;;;4.50;99.90;;;;;;5130217;28;20220;-80
2021/03/14 04:18:11;;;;;;;2.75;2.55;;;4.50;99.90;;;;;;5130563;28;20208;-80
2021/03/14 04:20:40;;;;;;;2.35;2.15;;;4.50;99.90;;;;;;5129272;28;20208;-81
2021/03/14 04:23:09;;;;;;;2.28;2.17;;;4.40;99.90;;;;;;5127685;28;20766;-80
2021/03/14 04:25:36;;;;;;;2.25;2.00;;;4.40;99.90;;;;;;5129532;28;20225;-80
2021/03/14 04:28:05;;;;;;;6.05;2.22;;;4.50;99.90;;;;;;5127576;28;20226;-80
2021/03/14 04:30:32;;;;;;;2.67;2.15;;;4.40;99.90;;;;;;5128060;28;20205;-82
2021/03/14 04:32:59;;;;;;;2.70;2.50;;;4.40;99.90;;;;;;5128020;28;20201;-82
2021/03/14 04:35:26;;;;;;;2.35;1.52;;;4.40;99.90;;;;;;5128428;28;20228;-80
2021/03/14 04:37:53;;;;;;;3.38;1.60;;;4.30;99.90;;;;;;5129260;28;20205;-81
2021/03/14 04:40:20;;;;;;;1.83;1.73;;;4.40;99.90;;;;;;5129033;28;20211;-80
2021/03/14 04:42:49;;;;;;;2.40;1.88;;;4.30;99.90;;;;;;5131356;28;20213;-81
2021/03/14 04:45:17;;;;;;;1.45;1.35;;;4.30;99.90;;;;;;5129814;28;20224;-80
2021/03/14 04:47:44;;;;;;;3.28;3.08;;;4.20;99.90;;;;;;5130143;28;20206;-80
2021/03/14 04:50:13;;;;;;;1.73;1.63;;;4.10;99.90;;;;;;5131534;28;20201;-80
2021/03/14 04:52:42;;;;;;;1.33;1.23;;;4.20;99.90;;;;;;5131891;28;20227;-81
2021/03/14 04:55:10;;;;;;;1.50;1.40;;;4.20;99.90;;;;;;5129379;28;20231;-81
2021/03/14 04:57:38;;;;;;;1.80;1.70;;;4.20;99.90;;;;;;5128156;28;20201;-81
2021/03/14 05:00:08;;;;;;;1.75;1.63;;;4.20;99.90;;;;;;5134131;28;20197;-80
2021/03/14 05:02:37;;;;;;;2.25;1.70;;;4.20;99.90;;;;;;5134049;28;20205;-79
2021/03/14 05:05:06;;;;;;;1.65;1.55;;;4.10;99.90;;;;;;5133522;28;20448;-80
2021/03/14 05:07:35;;;;;;;1.67;1.35;;;4.10;99.90;;;;;;5133724;28;20209;-79
2021/03/14 05:10:03;;;;;;;1.63;1.52;;;4.10;99.90;;;;;;5132450;28;20216;-79
2021/03/14 05:12:30;;;;;;;1.75;1.65;;;4.20;99.90;;;;;;5132874;28;20231;-79
2021/03/14 05:14:57;;;;;;;1.60;1.50;;;4.10;99.90;;;;;;5127632;28;20220;-80
2021/03/14 05:17:23;;;;;;;1.85;1.23;;;3.80;99.90;;;;;;5132674;28;20204;-80
2021/03/14 05:19:50;;;;;;;1.60;1.50;;;4.00;99.90;;;;;;5134565;28;20193;-79
2021/03/14 05:22:19;;;;;;;2.20;2.10;;;4.00;99.90;;;;;;5132824;28;20232;-80
2021/03/14 05:24:47;;;;;;;3.25;1.95;;;4.00;99.90;;;;;;5130643;28;20260;-80
2021/03/14 05:27:14;;;;;;;2.75;2.28;;;4.00;99.90;;;;;;5128787;28;20197;-81
2021/03/14 05:29:40;;;;;;;2.85;1.95;;;4.00;99.90;;;;;;5130091;28;20201;-81
2021/03/14 05:32:07;;;;;;;1.83;1.73;;;4.00;99.90;;;;;;5129770;28;20655;-80
2021/03/14 05:34:33;;;;;;;1.50;1.40;;;3.80;99.90;;;;;;5137514;28;20185;-79
2021/03/14 05:37:00;;;;;;;1.65;1.40;;;3.90;99.90;;;;;;5137318;28;20197;-80
2021/03/14 05:39:26;;;;;;;3.40;2.10;;;4.00;99.90;;;;;;5136463;28;20212;-81
2021/03/14 05:41:53;;;;;;;2.38;2.03;;;4.00;99.90;;;;;;5134757;28;20201;-80
2021/03/14 05:44:20;;;;;;;1.92;1.83;;;3.70;99.90;;;;;;5131555;28;20443;-80
2021/03/14 05:46:47;;;;;;;1.60;1.50;;;4.30;99.90;;;;;;5130799;22;20237;-88
2021/03/14 05:49:13;;;;;;;2.90;1.50;;;3.90;99.90;;;;;;5103299;28;20421;-87
2021/03/14 05:51:42;;;;;;;1.95;1.65;;;4.00;99.90;;;;;;5100237;28;20202;-87
2021/03/14 05:54:11;;;;;;;3.08;1.63;;;3.80;99.90;;;;;;5102835;28;20584;-87
2021/03/14 05:56:40;;;;;;;1.70;1.50;;;3.30;99.90;;;;;;5100105;28;20284;-87
2021/03/14 05:59:07;;;;;;;1.60;1.50;;;;;;;;;;5100792;28;20217;-86
2021/03/14 06:01:33;;;;;;;3.13;2.30;;;3.80;99.90;;;;;;5099085;28;20205;-87
2021/03/14 06:04:00;;;;;;;3.00;1.30;;;;;;;;;;5098766;28;20452;-87
2021/03/14 06:06:26;;;;;;;1.85;1.75;;;4.00;99.90;;;;;;5100915;28;20232;-88
2021/03/14 06:08:53;;;;;;;2.30;1.40;;;4.00;99.90;;;;;;5102252;28;20194;-86
2021/03/14 06:11:20;;;;;;;2.17;1.52;;;3.90;99.90;;;;;;5105251;28;20213;-86
2021/03/14 06:13:47;;;;;;;2.30;1.90;;;3.90;99.90;;;;;;5104425;28;20198;-87
2021/03/14 06:16:14;;;;;;;1.77;1.67;;;3.90;99.90;;;;;;5104304;28;20236;-86
2021/03/14 06:18:40;;;;;;;1.90;1.80;;;3.90;99.90;;;;;;5102623;28;20194;-87
2021/03/14 06:21:22;;;;;;;2.83;2.00;;;3.90;99.90;;;;;;5103087;28;20205;-87
2021/03/14 06:23:59;;;;;;;2.00;1.80;;;3.90;99.90;;;;;;5101355;28;20206;-87
2021/03/14 06:26:34;;;;;;;3.47;2.53;;;4.00;99.90;;;;;;5101198;28;20217;-87
2021/03/14 06:29:24;;;;;;;2.95;2.00;;;3.90;99.90;;;;;;5103905;28;20216;-87
2021/03/14 06:31:52;;;;;;;2.53;2.33;;;3.90;99.90;;;;;;5103176;28;20563;-87
2021/03/14 06:34:27;;;;;;;2.20;2.00;;;4.00;99.90;;;;;;5103728;28;20202;-87
2021/03/14 06:36:53;;;;;;;2.85;2.65;;;4.00;99.90;;;;;;5102491;28;20232;-87
2021/03/14 06:39:22;;;;;;;3.10;2.90;;;4.00;99.90;;;;;;5103104;28;20205;-87
2021/03/14 06:41:50;;;;;;;2.25;2.15;;;4.00;99.90;;;;;;5103367;28;20281;-87
2021/03/14 06:44:27;;;;;;;2.85;2.60;;;4.10;99.90;;;;;;5101331;28;20445;-86
2021/03/14 06:46:54;;;;;;;2.17;1.98;;;4.30;99.90;;;;;;5100568;28;20436;-87
2021/03/14 06:49:22;;;;;;;3.15;2.95;;;4.20;99.90;;;;;;5105439;28;20212;-87
2021/03/14 06:51:51;;;;;;;2.53;2.40;;;4.20;99.90;;;;;;5110178;28;20206;-87
2021/03/14 06:54:24;;;;;;;2.95;2.45;;;4.20;99.90;;;;;;5103850;28;20548;-87
2021/03/14 06:57:17;;;;;;;2.83;2.50;;;4.20;99.90;;;;;;5111920;28;20240;-87
2021/03/14 06:59:45;;;;;;;2.50;2.30;;;4.30;99.90;;;;;;5114030;28;20213;-86
2021/03/14 07:02:12;;;;;;;2.70;2.50;;;4.30;99.90;;;;;;5113155;28;20205;-87
2021/03/14 07:04:45;;;;;;;2.63;2.53;;;4.40;99.90;;;;;;5114269;28;20205;-87
2021/03/14 07:07:20;;;;;;;2.97;2.80;;;4.30;99.90;;;;;;5117010;28;20213;-87
2021/03/14 07:09:51;;;;;;;2.30;2.10;;;4.30;99.90;;;;;;5117824;28;20185;-87
2021/03/14 07:12:21;;;;;;;2.60;2.03;;;4.30;99.90;;;;;;5119809;28;20197;-88
2021/03/14 07:14:48;;;;;;;2.65;2.45;;;4.30;99.90;;;;;;5119990;28;20245;-87
2021/03/14 07:17:33;;;;;;;2.50;2.30;;;4.30;99.90;;;;;;5117607;28;20222;-87
2021/03/14 07:20:03;;;;;;;2.53;2.33;;;4.30;99.90;;;;;;5117136;28;20212;-87
2021/03/14 07:22:29;;;;;;;2.05;1.95;;;4.20;99.90;;;;;;5114089;28;20233;-87
2021/03/14 07:24:56;;;;;;;2.50;2.28;;;4.10;99.90;;;;;;5112994;28;20429;-87
2021/03/14 07:27:26;;;;;;;2.63;2.53;;;4.40;99.90;;;;;;5113794;28;20201;-87
2021/03/14 07:29:54;;;;;;;5.15;2.90;;;4.30;99.90;;;;;;5113209;28;20198;-87
2021/03/14 07:32:21;;;;;;;3.50;2.53;;;4.30;99.90;;;;;;5107826;28;20433;-87
2021/03/14 07:34:47;;;;;;;3.50;2.53;;;4.30;99.90;;;;;;5106120;28;20206;-87
2021/03/14 07:37:14;;;;;;;2.92;2.15;;;;;;;;;;5114170;28;20515;-87
2021/03/14 07:39:40;;;;;;;3.95;3.00;;;4.40;99.90;;;;;;5119041;28;20228;-88
2021/03/14 07:42:07;;;;;;;2.58;2.38;;;4.30;99.90;;;;;;5118859;28;20201;-87
2021/03/14 07:44:38;;;;;;;3.00;2.30;;;4.30;99.90;;;;;;5118011;28;20499;-87
2021/03/14 07:47:05;;;;;;;2.33;2.22;;;4.30;99.90;;;;;;5118191;28;20946;-87
2021/03/14 07:49:32;;;;;;;2.90;2.70;;;4.50;99.90;;;;;;5115750;28;20198;-87
2021/03/14 07:52:08;;;;;;;2.58;2.30;;;4.40;99.90;;;;;;5117507;28;20205;-87
2021/03/14 07:54:46;;;;;;;2.35;2.25;;;4.20;99.90;;;;;;5113226;28;20253;-87
2021/03/14 07:57:13;;;;;;;4.95;2.42;;;4.40;99.90;;;;;;5105753;28;20249;-87
2021/03/14 07:59:42;;;;;;;6.40;2.40;;;4.40;99.90;;;;;;5110604;28;20448;-87
2021/03/14 08:02:30;;;;;;;3.17;2.42;;;4.80;99.90;;;;;;5116078;28;20205;-87
2021/03/14 08:05:01;;;;;;;2.20;2.00;;;4.50;99.90;;;;;;5113587;28;20276;-88
2021/03/14 08:07:47;;;;;;;2.20;2.03;;;4.50;99.90;;;;;;5112629;28;20185;-87
2021/03/14 08:10:35;;;;;;;2.10;1.90;;;4.50;99.90;;;;;;5108201;28;20190;-87
2021/03/14 08:13:03;;;;;;;10.13;2.20;;;4.30;99.90;;;;;;5109692;28;20208;-87
2021/03/14 08:15:31;;;;;;;2.05;1.95;;;4.50;99.90;;;;;;5108794;28;20229;-87
2021/03/14 08:17:59;;;;;;;3.92;2.28;;;4.60;99.90;;;;;;5102863;28;20498;-87
2021/03/14 08:20:37;;;;;;;2.10;1.80;;;4.60;99.90;;;;;;5101125;28;20440;-88
2021/03/14 08:23:05;;;;;;;2.63;2.35;;;4.70;99.90;;;;;;5102182;28;20441;-88
2021/03/14 08:25:41;;;;;;;3.38;2.72;;;4.70;99.90;;;;;;5101513;28;20228;-87
2021/03/14 08:28:28;;;;;;;2.80;2.47;;;4.70;99.90;;;;;;5101916;28;20194;-88
2021/03/14 08:30:56;;;;;;;3.13;2.35;;;4.80;99.90;;;;;;5102332;28;20538;-87
2021/03/14 08:33:43;;;;;;;4.22;2.58;;;4.80;99.90;;;;;;5104698;28;20220;-87
2021/03/14 08:36:12;;;;;;;2.70;2.50;;;4.80;99.90;;;;;;5113430;28;20229;-87
2021/03/14 08:38:52;;;;;;;4.88;2.70;;;5.10;99.90;;;;;;5117256;28;20209;-87
2021/03/14 08:41:30;;;;;;;4.50;2.83;;;4.90;99.90;;;;;;5116898;28;20285;-89
2021/03/14 08:44:02;;;;;;;2.63;2.50;;;4.90;99.90;;;;;;5117620;28;20261;-87
2021/03/14 08:47:05;;;;;;;2.47;2.25;;;4.90;99.90;;;;;;5111700;28;20233;-86
2021/03/14 08:49:33;;;;;;;3.30;2.30;;;5.10;99.90;;;;;;5116831;28;20223;-87
2021/03/14 08:52:00;;;;;;;2.78;2.50;;;5.10;99.90;;;;;;5116837;28;20200;-87
2021/03/14 08:54:29;;;;;;;5.57;3.08;;;5.00;99.90;;;;;;5113437;28;20229;-88
2021/03/14 08:57:01;;;;;;;6.30;2.50;;;5.10;99.90;;;;;;5109513;28;20209;-86
2021/03/14 08:59:27;;;;;;;5.47;1.98;;;5.10;99.90;;;;;;5103442;28;20235;-87
2021/03/14 09:01:55;;;;;;;4.43;3.40;;;5.50;99.90;;;;;;5105543;28;20205;-87
2021/03/14 09:04:23;;;;;;;2.33;1.98;;;5.10;99.90;;;;;;5112272;28;20216;-87
2021/03/14 09:06:50;;;;;;;2.33;2.13;;;5.10;99.90;;;;;;5108178;28;20223;-87
2021/03/14 09:09:18;;;;;;;2.28;2.03;;;4.90;99.90;;;;;;5103970;28;20210;-87
2021/03/14 09:11:47;;;;;;;7.75;3.50;;;5.10;99.90;;;;;;5101785;28;20197;-87
2021/03/14 09:14:31;;;;;;;4.82;3.08;;;5.00;99.90;;;;;;5108081;28;20257;-87
2021/03/14 09:17:00;;;;;;;4.43;3.50;;;5.00;99.90;;;;;;5112867;28;20232;-86
2021/03/14 09:19:30;;;;;;;2.28;2.10;;;4.70;99.90;;;;;;5115016;28;20194;-86
2021/03/14 09:21:59;;;;;;;2.42;2.33;;;4.40;99.90;;;;;;5113655;28;20268;-86
2021/03/14 09:24:35;;;;;;;3.58;1.88;;;4.20;99.90;;;;;;5112257;28;20217;-87
2021/03/14 09:27:05;;;;;;;2.50;2.30;;;3.80;99.90;;;;;;5106583;28;20308;-86
2021/03/14 09:29:34;;;;;;;5.38;3.10;;;;;;;;;;5110668;28;20216;-86
2021/03/14 09:32:01;;;;;;;4.30;2.45;;;3.90;99.90;;;;;;5109765;28;20211;-86
2021/03/14 09:34:28;;;;;;;1.88;1.70;;;;;;;;;;5113093;28;20197;-87
2021/03/14 09:37:08;;;;;;;3.17;2.22;;;4.10;99.90;;;;;;5111871;28;20221;-87
2021/03/14 09:39:36;;;;;;;1.90;1.80;;;;;;;;;;5112818;28;20277;-88
2021/03/14 09:45:17;;;;;;;2.90;2.22;;;4.10;99.90;;;;;;5110966;28;20576;-89
2021/03/14 09:48:02;;;;;;;3.70;3.40;;;4.00;99.90;;;;;;5115413;28;20227;-88
2021/03/14 09:50:30;;;;;;;3.65;3.10;;;4.20;99.90;;;;;;5110145;28;20226;-87
2021/03/14 09:53:44;;;;;;;3.80;3.15;;;4.20;99.90;;;;;;5111700;28;20206;-87
2021/03/14 09:56:18;;;;;;;5.90;3.20;;;4.50;99.90;;;;;;5107795;28;20289;-87
2021/03/14 09:58:45;;;;;;;4.07;3.70;;;;;;;;;;5107492;28;20231;-88
2021/03/14 10:01:12;;;;;;;4.78;2.90;;;;;;;;;;5106556;28;20198;-88
2021/03/14 10:03:39;;;;;;;7.25;4.72;;;4.90;99.90;;;;;;5108689;28;20229;-88
2021/03/14 10:06:07;;;;;;;6.15;3.22;;;5.00;99.90;;;;;;5114838;28;20281;-88
2021/03/14 10:08:37;;;;;;;4.70;3.42;;;5.00;99.90;;;;;;5120314;28;20185;-87
2021/03/14 10:11:14;;;;;;;4.80;3.75;;;4.80;99.90;;;;;;5120160;28;20182;-88
2021/03/14 10:13:44;;;;;;;8.52;3.53;;;4.90;99.90;;;;;;5120208;28;20181;-88
2021/03/14 10:16:16;;;;;;;5.50;4.10;;;5.00;99.90;;;;;;5120803;28;20209;-87
2021/03/14 10:18:49;;;;;;;3.92;3.17;;;5.10;99.90;;;;;;5121240;28;20597;-88
2021/03/14 10:21:22;;;;;;;4.30;3.42;;;5.10;99.90;;;;;;5121368;28;20174;-87
2021/03/14 10:23:55;;;;;;;9.77;3.83;;;5.30;99.90;;;;;;5120910;28;20221;-88
2021/03/14 10:26:23;;;;;;;4.13;3.20;;;;;;;;;;5121017;28;20225;-89
2021/03/14 10:28:52;;;;;;;11.43;3.75;;;5.30;99.90;;;;;;5121433;28;20390;-89
2021/03/14 10:31:24;;;;;;;5.93;3.58;;;5.50;99.90;;;;;;5120772;28;20220;-88
2021/03/14 10:33:53;;;;;;;4.47;3.20;;;;;;;;;;5121007;28;20170;-90
2021/03/14 10:36:20;;;;;;;5.63;3.30;;;;;;;;;;5121185;28;20231;-91
2021/03/14 10:38:54;;;;;;;4.28;3.95;;;9.10;99.90;;;;;;5121129;28;20169;-89
2021/03/14 10:41:27;;;;;;;6.60;3.22;;;5.60;99.90;;;;;;5121108;28;20188;-90
2021/03/14 10:43:58;;;;;;;4.13;3.72;;;5.60;99.90;;;;;;5120762;28;20209;-88
2021/03/14 10:46:49;;;;;;;11.27;3.72;;;5.60;99.90;;;;;;5120468;28;20222;-89
2021/03/14 10:49:27;;;;;;;5.90;3.30;;;5.90;99.90;;;;;;5119990;28;20464;-88
2021/03/14 10:52:03;;;;;;;4.80;3.45;;;5.70;99.90;;;;;;5119299;28;20193;-87
2021/03/14 10:54:38;;;;;;;4.38;3.30;;;5.80;99.90;;;;;;5117644;28;20280;-88
2021/03/14 10:57:22;;;;;;;4.82;3.10;;;5.90;99.90;;;;;;5106903;28;20944;-89
2021/03/14 11:00:12;;;;;;;3.60;3.17;;;5.90;99.90;;;;;;5106689;28;20197;-89
2021/03/14 11:02:55;;;;;;;5.18;3.50;;;6.00;99.90;;;;;;5106220;28;20504;-89
2021/03/14 11:05:31;;;;;;;4.78;3.35;;;6.00;99.90;;;;;;5105391;28;20214;-88
2021/03/14 11:08:11;;;;;;;5.13;3.55;;;6.10;99.90;;;;;;5104336;28;20246;-89
2021/03/14 11:10:38;;;;;;;7.85;2.90;;;;;;;;;;5102376;28;20449;-88
2021/03/14 11:13:50;;;;;;;6.78;3.53;;;6.60;99.90;;;;;;5102888;28;20226;-89
2021/03/14 11:16:47;;;;;;;8.38;3.95;;;6.90;99.90;;;;;;5067242;28;20221;-88
2021/03/14 11:19:22;;;;;;;5.22;3.60;;;6.50;99.90;;;;;;5105422;28;20293;-88
2021/03/14 11:21:49;;;;;;;4.82;3.72;;;6.20;99.90;;;;;;5116529;28;20209;-88
2021/03/14 11:24:16;;;;;;;4.80;3.33;;;;;;;;;;5114562;28;20222;-88
2021/03/14 11:26:52;;;;;;;6.50;3.38;;;6.10;99.90;;;;;;5112967;28;20248;-88
2021/03/14 11:29:29;;;;;;;4.20;3.80;;;6.50;99.90;;;;;;5110960;28;20221;-88
2021/03/14 11:31:57;;;;;;;3.67;3.33;;;;;;;;;;5109728;28;20197;-88
2021/03/14 11:34:24;;;;;;;6.82;3.53;;;;;;;;;;5107165;28;20197;-89
2021/03/14 11:36:54;;;;;;;5.70;2.80;;;4.70;99.90;;;;;;5109020;28;20229;-88
2021/03/14 11:39:21;;;;;;;5.70;3.45;;;;;;;;;;5110288;28;20437;-88
2021/03/14 11:41:53;;;;;;;5.80;4.18;;;6.80;99.90;;;;;;5112772;28;20467;-87
2021/03/14 11:44:21;;;;;;;7.82;3.50;;;7.00;99.90;;;;;;5107086;28;20244;-89
2021/03/14 11:46:48;;;;;;;3.67;3.38;;;;;;;;;;5126307;22;20312;-81
2021/03/14 11:49:14;;;;;;;6.15;4.03;;;7.10;99.90;;;;;;5120252;28;20497;-80
2021/03/14 11:51:40;;;;;;;8.00;4.18;;;7.20;99.90;;;;;;5120078;28;20201;-79
2021/03/14 11:54:07;;;;;;;3.65;2.88;;;7.20;99.90;;;;;;5119916;28;20193;-79
2021/03/14 11:56:33;;;;;;;4.50;3.20;;;7.30;99.90;;;;;;5120416;28;20213;-80
2021/03/14 11:59:00;;;;;;;3.92;3.22;;;;;;;;;;5120640;28;20212;-80
2021/03/14 12:01:27;;;;;;;3.65;3.25;;;7.30;99.90;;;;;;5120037;28;20694;-81
2021/03/14 12:03:53;;;;;;;8.65;3.83;;;7.70;99.90;;;;;;5120100;28;20231;-79
2021/03/14 12:06:20;;;;;;;4.78;3.60;;;7.60;99.90;;;;;;5121430;28;20224;-80
2021/03/14 12:08:46;;;;;;;4.13;3.55;;;7.60;99.90;;;;;;5120344;28;20291;-80
2021/03/14 12:11:13;;;;;;;5.40;3.47;;;7.80;99.90;;;;;;5118906;28;20659;-80
2021/03/14 12:13:39;;;;;;;7.63;3.30;;;7.90;99.90;;;;;;5119487;28;20698;-80
2021/03/14 12:16:07;;;;;;;8.25;4.00;;;7.80;99.90;;;;;;5119933;28;20228;-80
2021/03/14 12:18:34;;;;;;;5.72;3.42;;;7.70;99.90;;;;;;5122317;28;20647;-81
2021/03/14 12:21:00;;;;;;;6.82;3.45;;;7.70;99.90;;;;;;5131172;28;20201;-81
2021/03/14 12:23:26;;;;;;;4.90;3.90;;;7.50;99.90;;;;;;5129690;28;20266;-80
2021/03/14 12:25:53;;;;;;;11.00;4.22;;;7.50;99.90;;;;;;5134932;28;20217;-80
2021/03/14 12:28:19;;;;;;;6.90;3.78;;;7.50;99.90;;;;;;5134771;28;20260;-81
2021/03/14 12:30:45;;;;;;;7.50;3.70;;;7.50;99.90;;;;;;5130618;28;20205;-81
2021/03/14 12:33:13;;;;;;;8.20;3.45;;;7.60;99.90;;;;;;5122529;28;20201;-79
2021/03/14 12:35:40;;;;;;;2.88;2.42;;;7.80;99.90;;;;;;5120798;28;20204;-80
2021/03/14 12:38:06;;;;;;;3.65;2.13;;;7.50;99.90;;;;;;5120062;28;20205;-80
2021/03/14 12:40:33;;;;;;;2.42;2.22;;;7.60;99.90;;;;;;5121368;28;20208;-79
2021/03/14 12:42:59;;;;;;;4.60;2.40;;;7.70;99.90;;;;;;5129305;28;20217;-78
2021/03/14 12:45:25;;;;;;;4.35;2.33;;;7.40;99.90;;;;;;5130996;28;20197;-79
2021/03/14 12:47:52;;;;;;;3.15;2.58;;;7.60;99.90;;;;;;5130659;28;20231;-77
2021/03/14 12:50:18;;;;;;;3.03;2.22;;;7.50;99.90;;;;;;5131665;28;20209;-78
2021/03/14 12:52:46;;;;;;;5.35;3.03;;;7.70;99.90;;;;;;5127900;28;20230;-81
2021/03/14 12:55:13;;;;;;;2.72;2.53;;;7.80;99.90;;;;;;5127126;28;20257;-80
2021/03/14 12:57:39;;;;;;;4.38;2.95;;;7.80;99.90;;;;;;5127161;28;20220;-80
2021/03/14 13:00:07;;;;;;;6.55;2.97;;;7.60;99.90;;;;;;5126165;28;20173;-80
2021/03/14 13:02:33;;;;;;;7.75;3.30;;;7.70;99.90;;;;;;5124644;28;20205;-80
2021/03/14 13:05:00;;;;;;;4.97;3.30;;;7.50;99.90;;;;;;5126976;28;20201;-80
2021/03/14 13:07:26;;;;;;;3.55;3.13;;;7.30;99.90;;;;;;5129370;28;20228;-78
2021/03/14 13:09:53;;;;;;;4.18;2.80;;;7.30;99.90;;;;;;5129668;28;20596;-80
2021/03/14 13:12:19;;;;;;;6.30;3.20;;;7.30;99.90;;;;;;5129710;28;20201;-79
2021/03/14 13:14:46;;;;;;;4.07;2.80;;;7.20;99.90;;;;;;5128775;28;20250;-78
2021/03/14 13:17:12;;;;;;;4.50;2.50;;;7.10;99.90;;;;;;5131203;28;20224;-79